Aérodrome :
LOGIN :

S'inscrire | Disclaimer

   EN    FR    IT 

 










Légende :    VFR   VFR Marginal   IFR   IFR Intensif   IFR Très Intensif
Visi : 
Plafond : 
>= 8 km
>= 3000ft
5 à 8 km
1000 à 3000 ft
1500m à 5 km
500 à 1000 ft
800 à 1500m
200 à 500 ft
< 800m
< 200 ft
Symboles :   Orages  Brouillard  Fortes neiges  Fortes précipitations  Vent > 20 kt
SIGMETs :   Divers  Orages  Givrage  Turbulence  Onde Orograph.  Cendres Volcan.






- Altitude de l'aérodrome : 935 ft


EBFS - Florennes

DERNIER METAR :
  • 122143Z AUTO 11007KT 1500 SCT150/// 25/17 Q1013 AMB

METARs EXPIRÉS :
  • 122125Z AUTO 12007KT 9999 BKN150/// 25/17 Q1013 BLU
  • 122055Z AUTO 10006KT 9999 SCT150/// BKN220/// 25/17 Q1013 BLU
  • 122025Z AUTO VRB02KT 9999 FEW150/// BKN210/// 26/17 Q1013 BLU
  • 121955Z AUTO 06003KT 9999 BKN150/// 26/17 Q1013 BLU
  • 121925Z AUTO 05005KT 9999 FEW085/// SCT170/// 25/17 Q1013 BLU
  • 121855Z AUTO 06006KT 9999 FEW140/// BKN170/// 26/17 Q1013 BLU

TAF TAF EBFS
Valide du 12 à 19h jusqu'au 13 à 07h UTC


121541Z 1219/1307 VRB03KT 9999 SCT250
TEMPO 1219/1307 VRB10G30KT 3000 TSRAGR BKN060CB BKN250
BECMG 1223/1301 15004KT



MET'MAP, la Météo Aéronautique d'un coup d'oeil ! - Copyright ORBIFLY Décembre 2007 - Disclaimer

ORBIFLY MET'MAP TEAM :

Programmation & Développement : Alexandra Zaïnal
Sur une idée originale de : Baudouin d'Aumeries
Assistance à la programmation : Marc-Olivier Méhu
Soutien technique & logistique : Manuel Goepfert

Contact : metmap@orbifly.com




SOURCES & CREDITS :

   NOAA